createdAt,value
2023-04-15T04:05:19.380Z,100089.91
2023-04-15T04:07:48.099Z,100089.38
2023-04-15T04:10:17.133Z,100092.19
2023-04-15T04:12:45.876Z,100088.94
2023-04-15T04:15:14.529Z,100100.47
2023-04-15T04:17:43.241Z,100093.13
2023-04-15T04:20:12.331Z,100095.94
2023-04-15T04:22:41.748Z,100098.38
2023-04-15T04:25:11.055Z,100101.22
2023-04-15T04:27:39.686Z,100111.22
2023-04-15T04:30:09.681Z,100105.09
2023-04-15T04:32:38.358Z,100102.72
2023-04-15T04:35:07.296Z,100110.16
2023-04-15T04:37:36.181Z,100114.72
2023-04-15T04:40:05.750Z,100122.72
2023-04-15T04:42:36.847Z,100130.53
2023-04-15T04:45:07.508Z,100127.97
2023-04-15T04:47:36.740Z,100131.56
2023-04-15T04:50:06.763Z,100134.97
2023-04-15T04:52:36.037Z,100133.78
2023-04-15T04:55:05.214Z,100129.44
2023-04-15T04:57:35.814Z,100137.50
2023-04-15T05:00:05.310Z,100143.88
2023-04-15T05:02:34.631Z,100136.88
2023-04-15T05:05:03.346Z,100136.69
2023-04-15T05:07:32.769Z,100144.47
2023-04-15T05:10:01.747Z,100132.91
2023-04-15T05:12:30.852Z,100151.72
2023-04-15T05:14:59.857Z,100145.91
2023-04-15T05:17:28.893Z,100134.03
2023-04-15T05:19:57.461Z,100127.66
2023-04-15T05:22:28.047Z,100135.19
2023-04-15T05:24:57.073Z,100136.25
2023-04-15T05:27:25.737Z,100136.28
2023-04-15T05:29:54.302Z,100138.22
2023-04-15T05:32:23.436Z,100152.59
2023-04-15T05:34:52.280Z,100155.41
2023-04-15T05:37:22.326Z,100155.22
2023-04-15T05:39:50.960Z,100154.19
2023-04-15T05:42:19.530Z,100156.47
2023-04-15T05:44:48.519Z,100162.75
2023-04-15T05:47:17.290Z,100163.56
2023-04-15T05:49:45.893Z,100167.16
2023-04-15T05:52:14.419Z,100164.84
2023-04-15T05:54:43.990Z,100171.13
2023-04-15T05:57:13.025Z,100182.19
2023-04-15T05:59:42.639Z,100189.09
2023-04-15T06:02:11.566Z,100191.19
2023-04-15T06:04:40.539Z,100195.81
2023-04-15T06:07:09.343Z,100194.34
2023-04-15T06:09:38.809Z,100198.50
2023-04-15T06:12:12.447Z,100186.78
2023-04-15T06:14:41.769Z,100188.63
2023-04-15T06:17:11.393Z,100190.69
2023-04-15T06:19:40.974Z,100202.66
2023-04-15T06:22:10.007Z,100192.38
2023-04-15T06:24:38.798Z,100200.34
2023-04-15T06:27:07.533Z,100186.50
2023-04-15T06:29:36.441Z,100190.03
2023-04-15T06:32:05.521Z,100195.06
2023-04-15T06:34:34.740Z,100193.19
2023-04-15T06:37:05.126Z,100206.50
2023-04-15T06:39:35.393Z,100206.38
2023-04-15T06:42:04.527Z,100199.78
2023-04-15T06:44:34.148Z,100203.84
2023-04-15T06:47:03.407Z,100203.47
2023-04-15T06:49:32.032Z,100205.22
2023-04-15T06:52:01.590Z,100204.25
2023-04-15T06:54:30.269Z,100203.13
2023-04-15T06:56:59.389Z,100207.13
2023-04-15T06:59:28.958Z,100202.94
2023-04-15T07:01:57.679Z,100205.81
2023-04-15T07:04:28.104Z,100210.56
2023-04-15T07:06:57.424Z,100215.28
2023-04-15T07:09:26.704Z,100211.66
2023-04-15T07:11:55.436Z,100220.25
2023-04-15T07:14:24.460Z,100214.66
2023-04-15T07:16:53.521Z,100204.06
2023-04-15T07:19:22.194Z,100206.16
2023-04-15T07:21:51.277Z,100194.50
2023-04-15T07:24:20.728Z,100200.09
2023-04-15T07:26:49.554Z,100194.75
2023-04-15T07:29:18.565Z,100199.38
2023-04-15T07:31:47.503Z,100202.16
2023-04-15T07:34:16.582Z,100196.97
2023-04-15T07:36:46.018Z,100190.09
2023-04-15T07:39:14.803Z,100194.25
2023-04-15T07:41:44.050Z,100190.69
2023-04-15T07:44:13.449Z,100187.00
2023-04-15T07:46:42.015Z,100184.13
2023-04-15T07:49:10.820Z,100182.81
2023-04-15T07:51:39.380Z,100180.97
2023-04-15T07:54:09.305Z,100177.75
2023-04-15T07:56:37.928Z,100177.28
2023-04-15T07:59:09.466Z,100179.38
2023-04-15T08:01:39.000Z,100180.09
2023-04-15T08:04:08.216Z,100172.63
2023-04-15T08:06:39.673Z,100172.84
2023-04-15T08:09:08.319Z,100167.72
2023-04-15T08:11:37.602Z,100174.19
2023-04-15T08:14:06.882Z,100166.72
2023-04-15T08:16:35.766Z,100163.00
2023-04-15T08:19:05.666Z,100170.03
2023-04-15T08:21:34.882Z,100176.00
2023-04-15T08:24:03.776Z,100173.81
2023-04-15T08:26:32.545Z,100174.44
2023-04-15T08:29:02.189Z,100175.94
2023-04-15T08:31:32.381Z,100176.50
2023-04-15T08:34:01.145Z,100178.03
2023-04-15T08:36:32.976Z,100176.13
2023-04-15T08:39:02.248Z,100173.25
2023-04-15T08:42:01.928Z,100175.34
2023-04-15T08:44:34.688Z,100182.84
2023-04-15T08:47:06.130Z,100178.81
2023-04-15T08:49:39.585Z,100171.22
2023-04-15T08:52:09.351Z,100158.84
2023-04-15T08:54:38.728Z,100155.66
2023-04-15T08:57:08.009Z,100162.28
2023-04-15T08:59:37.057Z,100162.75
2023-04-15T09:02:06.804Z,100160.41
2023-04-15T09:04:35.446Z,100164.94
2023-04-15T09:07:04.851Z,100161.59
2023-04-15T09:09:33.798Z,100171.53
2023-04-15T09:12:02.464Z,100160.47
2023-04-15T09:14:34.918Z,100164.19
2023-04-15T09:17:04.955Z,100155.59
2023-04-15T09:19:34.614Z,100161.13
2023-04-15T09:22:03.972Z,100148.78
2023-04-15T09:24:38.948Z,100157.81
2023-04-15T09:27:08.453Z,100151.84
2023-04-15T09:29:37.793Z,100154.31
2023-04-15T09:32:14.154Z,100153.16
2023-04-15T09:34:43.151Z,100150.81
2023-04-15T09:37:28.588Z,100144.81
2023-04-15T09:40:00.956Z,100146.97
2023-04-15T09:42:29.793Z,100142.47
2023-04-15T09:45:09.597Z,100145.16
2023-04-15T09:47:38.281Z,100135.34
2023-04-15T09:50:07.697Z,100144.31
2023-04-15T09:52:45.674Z,100139.47
2023-04-15T09:55:17.028Z,100134.63
2023-04-15T09:57:47.326Z,100134.00
2023-04-15T10:00:16.370Z,100123.41
2023-04-15T10:02:48.473Z,100129.50
2023-04-15T10:05:18.058Z,100124.81
2023-04-15T10:07:48.213Z,100123.16
2023-04-15T10:10:17.503Z,100116.06
2023-04-15T10:12:46.425Z,100115.50
2023-04-15T10:15:19.468Z,100111.16
2023-04-15T10:17:51.702Z,100110.09
2023-04-15T10:20:21.349Z,100104.59
2023-04-15T10:22:51.447Z,100105.56
2023-04-15T10:25:20.634Z,100102.97
2023-04-15T10:27:52.188Z,100100.06
2023-04-15T10:30:23.282Z,100098.09
2023-04-15T10:32:53.581Z,100110.13
2023-04-15T10:35:23.058Z,100102.72
2023-04-15T10:37:51.590Z,100095.91
2023-04-15T10:40:33.398Z,100097.69
2023-04-15T10:43:02.911Z,100097.31
2023-04-15T10:45:37.235Z,100097.94
2023-04-15T10:48:08.998Z,100091.06
2023-04-15T10:50:37.722Z,100092.69
2023-04-15T10:53:06.290Z,100081.94
2023-04-15T10:55:35.334Z,100080.84
2023-04-15T10:58:04.372Z,100085.56
2023-04-15T11:00:35.273Z,100079.72
2023-04-15T11:03:09.795Z,100075.38
2023-04-15T11:05:41.445Z,100073.50
2023-04-15T11:08:12.389Z,100074.88
2023-04-15T11:10:41.264Z,100082.66
2023-04-15T11:13:10.597Z,100073.81
2023-04-15T11:15:41.684Z,100070.25
2023-04-15T11:18:12.671Z,100066.63
2023-04-15T11:20:45.134Z,100065.28
2023-04-15T11:23:19.295Z,100068.88
2023-04-15T11:25:48.670Z,100063.34
2023-04-15T11:28:17.407Z,100062.19
2023-04-15T11:30:45.956Z,100055.03
2023-04-15T11:33:14.907Z,100052.56
2023-04-15T11:35:44.054Z,100058.38
2023-04-15T11:38:14.344Z,100056.66
2023-04-15T11:40:46.822Z,100055.53
2023-04-15T11:43:25.324Z,100058.06
2023-04-15T11:45:57.867Z,100059.66
2023-04-15T11:48:27.917Z,100048.06
2023-04-15T11:51:02.077Z,100049.13
2023-04-15T11:53:46.933Z,100047.19
2023-04-15T11:56:21.586Z,100053.00
2023-04-15T11:58:53.083Z,100052.69
2023-04-15T12:01:20.345Z,100038.78
2023-04-15T12:03:49.463Z,100040.56
2023-04-15T12:06:23.480Z,100036.41
2023-04-15T12:08:56.361Z,100046.38
2023-04-15T12:11:26.672Z,100052.56
2023-04-15T12:14:00.155Z,100047.03
2023-04-15T12:16:29.239Z,100044.63
2023-04-15T12:18:59.326Z,100037.31
2023-04-15T12:21:34.624Z,100040.13
2023-04-15T12:24:05.691Z,100036.97
2023-04-15T12:26:39.142Z,100036.38
2023-04-15T12:29:10.881Z,100035.13
2023-04-15T12:31:51.689Z,100028.84
2023-04-15T12:34:30.471Z,100034.84
2023-04-15T12:36:59.802Z,100029.94
2023-04-15T12:39:30.803Z,100037.66
2023-04-15T12:42:01.627Z,100034.31
2023-04-15T12:44:29.564Z,100035.25
2023-04-15T12:46:57.898Z,100033.25
2023-04-15T12:49:26.689Z,100027.56
2023-04-15T12:51:55.983Z,100029.91
2023-04-15T12:54:24.034Z,100038.09
2023-04-15T12:56:51.624Z,100035.84
2023-04-15T12:59:19.409Z,100035.63
2023-04-15T13:01:48.952Z,100035.03
2023-04-15T13:04:17.226Z,100038.25
2023-04-15T13:06:45.474Z,100040.06
2023-04-15T13:09:13.042Z,100037.84
2023-04-15T13:11:40.997Z,100038.72
2023-04-15T13:14:11.723Z,100041.09
2023-04-15T13:16:39.762Z,100035.69
2023-04-15T13:19:07.446Z,100035.66
2023-04-15T13:21:36.163Z,100043.13
2023-04-15T13:24:05.048Z,100024.03
2023-04-15T13:26:33.169Z,100029.97
2023-04-15T13:29:01.962Z,100038.16
2023-04-15T13:31:29.973Z,100032.09
2023-04-15T13:33:57.806Z,100025.75
2023-04-15T13:36:26.342Z,100027.56
2023-04-15T13:38:53.896Z,100028.34
2023-04-15T13:41:21.916Z,100026.63
2023-04-15T13:43:49.236Z,100028.03
2023-04-15T13:46:17.036Z,100026.69
2023-04-15T13:48:44.417Z,100018.44
2023-04-15T13:51:11.870Z,100022.69
2023-04-15T13:53:39.995Z,100018.25
2023-04-15T13:56:08.425Z,100020.50
2023-04-15T13:58:37.275Z,100023.66
2023-04-15T14:01:06.793Z,100019.34
2023-04-15T14:03:36.181Z,100019.13
2023-04-15T14:06:05.015Z,100013.69
2023-04-15T14:08:32.727Z,100019.44
2023-04-15T14:11:00.558Z,100017.97
2023-04-15T14:13:28.486Z,100017.88
2023-04-15T14:15:57.591Z,100023.41
2023-04-15T14:18:25.755Z,100023.66
2023-04-15T14:20:53.353Z,100026.66
2023-04-15T14:23:21.321Z,100023.31
2023-04-15T14:25:49.406Z,100029.09
2023-04-15T14:28:16.750Z,100021.00
2023-04-15T14:30:44.196Z,100026.31
2023-04-15T14:33:11.648Z,100024.59
2023-04-15T14:35:39.153Z,100029.81
2023-04-15T14:38:10.893Z,100035.22
2023-04-15T14:40:39.180Z,100035.34
2023-04-15T14:43:06.520Z,100035.19
2023-04-15T14:45:34.432Z,100028.03
2023-04-15T14:48:02.335Z,100034.75
2023-04-15T14:50:30.302Z,100044.97
2023-04-15T14:52:58.740Z,100040.69
2023-04-15T14:55:26.176Z,100053.75
2023-04-15T14:57:53.569Z,100048.69
2023-04-15T15:00:21.707Z,100041.75
2023-04-15T15:02:50.021Z,100043.38
2023-04-15T15:05:18.093Z,100035.16
2023-04-15T15:07:45.904Z,100038.22
2023-04-15T15:10:13.683Z,100039.56
2023-04-15T15:12:41.078Z,100036.00
2023-04-15T15:15:24.966Z,100037.59
2023-04-15T15:17:56.238Z,100040.31
2023-04-15T15:20:24.843Z,100049.44
2023-04-15T15:22:52.477Z,100045.03
2023-04-15T15:25:20.568Z,100059.72
2023-04-15T15:27:49.082Z,100056.31
2023-04-15T15:30:16.724Z,100051.78
2023-04-15T15:32:44.312Z,100062.47
2023-04-15T15:35:11.748Z,100052.22
2023-04-15T15:37:39.476Z,100062.75
2023-04-15T15:40:08.320Z,100052.56
2023-04-15T15:42:35.779Z,100052.41
2023-04-15T15:45:04.792Z,100069.84
2023-04-15T15:47:32.912Z,100076.06
2023-04-15T15:50:02.592Z,100079.13
2023-04-15T15:52:31.340Z,100083.34
2023-04-15T15:54:58.892Z,100086.59
2023-04-15T15:57:26.579Z,100083.59
2023-04-15T16:00:04.847Z,100094.91
2023-04-15T16:03:05.034Z,100105.44
2023-04-15T16:05:28.477Z,100110.59
2023-04-15T16:07:55.884Z,100108.78
2023-04-15T16:10:23.781Z,100111.41
2023-04-15T16:12:51.023Z,100113.66
2023-04-15T16:15:18.445Z,100120.34
2023-04-15T16:17:46.446Z,100123.84
2023-04-15T16:20:13.765Z,100119.75
2023-04-15T16:22:41.723Z,100132.09
2023-04-15T16:25:09.672Z,100129.44
2023-04-15T16:27:50.357Z,100133.53
2023-04-15T16:30:25.465Z,100138.38
2023-04-15T16:32:53.086Z,100134.81
2023-04-15T16:35:21.115Z,100137.59
2023-04-15T16:37:48.609Z,100143.22
2023-04-15T16:40:16.636Z,100143.94
2023-04-15T16:42:44.009Z,100153.22
2023-04-15T16:45:11.493Z,100147.19
2023-04-15T16:47:38.939Z,100159.66
2023-04-15T16:50:07.775Z,100151.66
2023-04-15T16:52:36.327Z,100164.94
2023-04-15T16:55:05.075Z,100163.53
2023-04-15T16:58:00.766Z,100160.44
2023-04-15T17:00:20.544Z,100158.81
2023-04-15T17:02:48.873Z,100154.06
2023-04-15T17:05:16.474Z,100163.19
2023-04-15T17:07:44.235Z,100162.16
2023-04-15T17:10:13.926Z,100164.09
2023-04-15T17:12:41.603Z,100168.25
2023-04-15T17:15:09.438Z,100167.97
2023-04-15T17:17:38.234Z,100176.22
2023-04-15T17:20:06.162Z,100179.00
2023-04-15T17:22:34.307Z,100188.38
2023-04-15T17:25:02.079Z,100194.28
2023-04-15T17:27:33.449Z,100201.81
2023-04-15T17:30:08.795Z,100221.97
2023-04-15T17:32:56.562Z,100227.84
2023-04-15T17:35:44.562Z,100233.16
2023-04-15T17:38:31.823Z,100231.34
2023-04-15T17:41:19.584Z,100252.00
2023-04-15T17:44:07.047Z,100260.09
2023-04-15T17:46:54.601Z,100264.69
2023-04-15T17:49:42.378Z,100268.78
2023-04-15T17:52:29.658Z,100266.72
2023-04-15T17:55:17.457Z,100262.66
2023-04-15T17:58:04.846Z,100280.19
2023-04-15T18:00:52.089Z,100293.44
2023-04-15T18:03:39.612Z,100300.78
2023-04-15T18:06:27.191Z,100310.63
2023-04-15T18:09:14.421Z,100326.50
2023-04-15T18:12:02.233Z,100341.63
2023-04-15T18:14:49.900Z,100344.09
2023-04-15T18:17:37.543Z,100358.84
2023-04-15T18:20:15.993Z,100367.78
2023-04-15T18:22:45.690Z,100353.59
2023-04-15T18:25:13.500Z,100345.53
2023-04-15T18:27:41.030Z,100347.69
2023-04-15T18:30:10.383Z,100339.13
2023-04-15T18:32:38.654Z,100336.97
2023-04-15T18:35:07.140Z,100352.13
2023-04-15T18:37:35.342Z,100354.97
2023-04-15T18:40:03.856Z,100359.97
2023-04-15T18:42:31.217Z,100368.94
2023-04-15T18:44:58.655Z,100374.50
2023-04-15T18:47:27.968Z,100379.38
2023-04-15T18:49:55.386Z,100392.94
2023-04-15T18:52:22.701Z,100388.03
2023-04-15T18:54:50.689Z,100390.44
2023-04-15T18:57:20.699Z,100395.16
2023-04-15T18:59:54.337Z,100402.81
2023-04-15T19:02:22.201Z,100404.69
2023-04-15T19:04:50.014Z,100411.72
2023-04-15T19:07:17.427Z,100415.38
2023-04-15T19:09:44.886Z,100428.16
2023-04-15T19:12:12.201Z,100424.81
2023-04-15T19:14:39.912Z,100430.28
2023-04-15T19:17:08.334Z,100429.59
2023-04-15T19:19:35.983Z,100433.69
2023-04-15T19:22:03.748Z,100438.16
2023-04-15T19:24:33.114Z,100444.38
2023-04-15T19:27:01.741Z,100446.13
2023-04-15T19:29:29.096Z,100445.75
2023-04-15T19:31:56.591Z,100445.91
2023-04-15T19:34:25.051Z,100455.72
2023-04-15T19:36:52.957Z,100467.50
2023-04-15T19:39:21.321Z,100470.22
2023-04-15T19:41:49.090Z,100480.03
2023-04-15T19:44:17.290Z,100482.19
2023-04-15T19:46:44.944Z,100476.69
2023-04-15T19:49:12.414Z,100487.69
2023-04-15T19:51:39.720Z,100496.59
2023-04-15T19:54:07.460Z,100502.97
2023-04-15T19:56:35.294Z,100498.94
2023-04-15T19:59:03.078Z,100503.72
2023-04-15T20:01:30.622Z,100497.81
2023-04-15T20:03:58.565Z,100501.69
2023-04-15T20:06:27.574Z,100509.09
2023-04-15T20:08:54.886Z,100513.16
2023-04-15T20:11:25.150Z,100527.16
2023-04-15T20:14:12.960Z,100518.13
2023-04-15T20:16:40.588Z,100530.38
2023-04-15T20:19:09.408Z,100526.81
2023-04-15T20:21:36.788Z,100527.31
2023-04-15T20:24:04.831Z,100531.97
2023-04-15T20:26:32.235Z,100533.88
2023-04-15T20:29:00.430Z,100540.31
2023-04-15T20:31:28.362Z,100536.06
2023-04-15T20:33:55.822Z,100547.03
2023-04-15T20:36:23.141Z,100550.00
2023-04-15T20:38:50.872Z,100556.41
2023-04-15T20:41:18.558Z,100558.69
2023-04-15T20:43:46.461Z,100560.53
2023-04-15T20:46:21.190Z,100563.16
2023-04-15T20:48:49.644Z,100567.00
2023-04-15T20:51:16.960Z,100567.78
